Saguache, CO

3:45 PM MDT on July 24, 2014 (GMT -0600)
Saguache (K04V) Elev 7825 ft | 38.10 °N, 106.17 °W | Change Station

Current weather conditions updated 10 minutes ago

Light Drizzle
Light Drizzle
72 °F
Feels Like 72 °F
N
8
Wind Variable Wind from West

Today is forecast to be Cooler than yesterday. Showers and thunderstorms late.

Today
High -- | Low -- °F
--% Chance of Precip.
Yesterday
High -- | Low -- °F
Precip. -- in
6:00 AM 8:21 PM
Waning Crescent, 4% visible
Pressure 30.33 in
Visibility 10.0 miles
Clouds Scattered Clouds 3100 ft
Scattered Clouds 9000 ft
Scattered Clouds 12000 ft
Dew Point 54 °F
Humidity 53%
Rainfall 0.00 in
Snow Depth Not available.
UV 7 out of 12
Pollen 7.40 out of 12
Air Quality Not available.
Flu Activity Not available.
METAR K04V 242135Z AUTO 27007KT 10SM -DZ SCT031 SCT090 SCT120 22/12 A3033 RMK AO2 LTG DSNT W

More Conditions Fewer Conditions

Pressure 30.33 in
Visibility 10.0 miles
Clouds Scattered Clouds 3100 ft
Scattered Clouds 9000 ft
Scattered Clouds 12000 ft
Dew Point 54 °F
Humidity 53%
Rainfall 0.00 in
Snow Depth Not available.
UV 7 out of 12
Pollen 7.40 out of 12
Air Quality Not available.
Flu Activity Not available.
METAR K04V 242135Z AUTO 27007KT 10SM -DZ SCT031 SCT090 SCT120 22/12 A3033 RMK AO2 LTG DSNT W

More Conditions Fewer Conditions

10-Day Weather Forecast

Almanac

Astronomy

Jul. 24, 2014 Rise Set
Actual Time 6:00 AM MDT 8:21 PM MDT
Civil Twilight 5:30 AM MDT 8:50 PM MDT
Nautical Twilight 4:53 AM MDT 9:27 PM MDT
Astronomical Twilight 4:13 AM MDT 10:08 PM MDT
Moon 4:10 AM MDT 6:38 PM MDT
Length of Visible Light 15h 20m
Length of Day
14h 20m
Tomorrow will be 1m 37s shorter.
Waning Crescent, 4% of the Moon is Illuminated
Today
Waning Crescent
Jul 26
New
Aug 3
First Quarter
Aug 10
Full
Aug 17
Last Quarter

Today's Extremes

State Highs State Lows

Community

WunderPhotos

Upload Photos

1,737,139 photos uploaded!

Nearby

Snow Depth

Station Depth Elevation
Wolf Creek Summit 0 in 11000 ft
Upper San Juan 0 in 10130 ft
Middle Creek 4 in 11250 ft
Rough And Tumble 4 in 10360 ft
Butte 0 in 10160 ft

Earthquake Activity

City Distance Mag. Time & Date
No recent earthquake activity has been reported nearby.
Minimum magnitude displayed is 2.5.

Coastal Water Temperatures

Place Temperature
No Stations Reporting

Nearby Weather Stations

Station Location Temp. Heat Index Dew Point Humidity Wind Precip. Elev Updated Type
RAWS SAN LUIS VALLEY PORTABLE CO, Villa Grove, CO 79 °F 78 °F 43 °F 28% SSW  at  11 mph 0.00 in / hr 8414 ft 2:38 PM MDT MADIS
NE of Center, Center, CO 84.7 °F 83 °F 52 °F 33% SE  at  9.0 mph 0.00 in / hr 7631 ft 3:45 PM MDT Rapid Fire
ghost town 10250 ft, near St. Elmo, pequot, mn 67.9 °F - 38 °F 34% NW  at  0.0 mph - / hr 11227 ft 3:40 PM MDT Normal
RAWS LUJAN CO, Gunnison, CO 74 °F 76 °F 37 °F 26% NNW  at  5 mph 0.00 in / hr 11078 ft 2:57 PM MDT MADIS

Show More Stations Show Fewer Stations